Time;durP1;ratioP1;P1;durP2;ratioP2;P2;SDS_P1;SDS_P2;PMS_P1;PMS_P2;Temp;Humidity;BMP_temperature;BMP_pressure;BME280_temperature;BME280_humidity;BME280_pressure;Samples;Min_cycle;Max_cycle;Signal;HPM_P1;HPM_P2
2024/03/31 00:00:09;;;;;;;53.30;13.20;;;;;;;16.13;44.06;98983.15;111012;1258;23539;-69
2024/03/31 00:03:02;;;;;;;59.20;12.70;;;;;;;16.05;44.31;98984.41;110413;1256;21954;-69
2024/03/31 00:05:31;;;;;;;62.80;14.30;;;;;;;16.01;44.45;98971.58;110883;1258;22956;-69
2024/03/31 00:07:59;;;;;;;56.30;11.70;;;;;;;15.96;44.65;98973.21;110796;1258;21959;-70
2024/03/31 00:10:28;;;;;;;66.50;12.50;;;;;;;15.92;44.59;98972.93;111054;1258;21964;-71
2024/03/31 00:12:57;;;;;;;63.10;12.60;;;;;;;15.89;44.74;98973.32;110678;1258;21971;-70
2024/03/31 00:15:25;;;;;;;59.60;11.50;;;;;;;15.86;44.83;98975.55;110977;1258;23088;-69
2024/03/31 00:17:55;;;;;;;53.90;12.50;;;;;;;15.82;44.99;98976.95;110437;1258;24100;-70
2024/03/31 00:20:24;;;;;;;53.70;12.30;;;;;;;15.77;45.21;98971.22;110705;1258;23799;-69
2024/03/31 00:22:53;;;;;;;50.50;10.50;;;;;;;15.75;45.44;98968.54;110748;1258;21962;-69
2024/03/31 00:25:21;;;;;;;59.40;11.60;;;;;;;15.72;45.57;98966.91;110987;1258;21967;-68
2024/03/31 00:27:50;;;;;;;52.70;11.40;;;;;;;15.70;45.37;98969.05;110639;1258;21961;-69
2024/03/31 00:30:19;;;;;;;56.20;12.40;;;;;;;15.69;45.47;98964.66;110769;1251;22682;-69
2024/03/31 00:32:47;;;;;;;46.80;11.10;;;;;;;15.69;45.52;98957.48;110928;1258;23096;-68
2024/03/31 00:35:16;;;;;;;42.90;11.70;;;;;;;15.66;45.72;98963.30;110427;1258;21961;-68
2024/03/31 00:37:44;;;;;;;49.50;10.20;;;;;;;15.64;45.81;98964.80;110769;1258;21963;-68
2024/03/31 00:40:13;;;;;;;46.40;10.90;;;;;;;15.61;45.89;98961.15;110745;1258;21966;-69
2024/03/31 00:42:42;;;;;;;51.50;10.30;;;;;;;15.59;46.04;98962.99;111004;1258;21959;-69
2024/03/31 00:45:12;;;;;;;46.20;9.00;;;;;;;15.56;46.26;98957.45;110698;1258;24089;-69
2024/03/31 00:47:41;;;;;;;47.40;10.80;;;;;;;15.55;46.10;98956.19;110811;1258;21958;-69
2024/03/31 00:50:10;;;;;;;37.90;9.50;;;;;;;15.55;46.19;98954.27;110770;1258;22025;-68
2024/03/31 00:52:39;;;;;;;46.20;10.70;;;;;;;15.52;46.42;98955.34;110697;1258;21971;-69
2024/03/31 00:55:08;;;;;;;48.30;11.00;;;;;;;15.49;46.47;98957.55;110578;1258;21987;-69
2024/03/31 00:57:36;;;;;;;42.90;9.60;;;;;;;15.47;46.56;98956.69;110570;1258;22074;-68
2024/03/31 01:00:06;;;;;;;39.00;10.30;;;;;;;15.46;46.73;98958.75;110543;1258;21963;-68
2024/03/31 01:02:35;;;;;;;44.90;9.50;;;;;;;15.44;46.72;98958.77;110569;1258;22265;-69
2024/03/31 01:05:04;;;;;;;42.50;10.20;;;;;;;15.43;46.93;98957.14;110745;1258;21958;-69
2024/03/31 01:07:33;;;;;;;44.00;9.00;;;;;;;15.42;46.83;98955.08;110746;1258;22750;-69
2024/03/31 01:10:03;;;;;;;38.90;8.20;;;;;;;15.41;46.74;98949.89;110448;1258;21971;-68
2024/03/31 01:12:33;;;;;;;38.80;9.70;;;;;;;15.39;46.97;98950.98;110550;1258;21999;-68
2024/03/31 01:15:03;;;;;;;47.30;8.90;;;;;;;15.36;47.07;98957.56;110789;1258;21961;-68
2024/03/31 01:17:32;;;;;;;43.00;9.40;;;;;;;15.34;46.91;98954.94;110504;1258;21964;-69
2024/03/31 01:20:01;;;;;;;44.80;10.10;;;;;;;15.33;47.20;98956.35;110822;1258;22581;-69
2024/03/31 01:22:31;;;;;;;49.30;10.00;;;;;;;15.32;47.44;98951.19;110812;1258;23922;-69
2024/03/31 01:25:01;;;;;;;52.70;10.90;;;;;;;15.30;47.30;98950.80;110538;1258;23156;-69
2024/03/31 01:27:30;;;;;;;43.80;10.10;;;;;;;15.30;47.41;98950.27;110760;1258;21964;-69
2024/03/31 01:29:59;;;;;;;41.20;10.10;;;;;;;15.29;47.61;98949.14;110514;1258;21933;-69
2024/03/31 01:32:27;;;;;;;41.80;10.00;;;;;;;15.27;47.57;98949.88;110475;1255;24718;-68
2024/03/31 01:34:56;;;;;;;35.20;8.40;;;;;;;15.26;47.70;98948.13;110751;1258;21964;-68
2024/03/31 01:37:25;;;;;;;39.50;10.00;;;;;;;15.25;47.52;98953.27;110411;1258;21972;-68
2024/03/31 01:39:54;;;;;;;31.70;7.80;;;;;;;15.26;47.51;98948.02;110772;1258;21962;-68
2024/03/31 01:42:23;;;;;;;34.10;8.50;;;;;;;15.27;47.59;98951.88;110539;1258;21958;-68
2024/03/31 01:44:52;;;;;;;37.00;8.80;;;;;;;15.26;47.55;98942.77;110535;1258;22033;-69
2024/03/31 01:47:21;;;;;;;38.50;8.60;;;;;;;15.24;47.61;98946.00;110532;1258;23614;-69
2024/03/31 01:49:50;;;;;;;35.80;8.10;;;;;;;15.23;47.70;98946.66;110341;1258;21967;-68
2024/03/31 01:52:18;;;;;;;34.50;8.20;;;;;;;15.21;47.82;98950.20;110769;1258;21958;-69
2024/03/31 01:54:47;;;;;;;35.60;8.30;;;;;;;15.19;47.88;98946.70;110513;1258;21960;-68
2024/03/31 01:57:16;;;;;;;34.00;8.10;;;;;;;15.17;48.01;98951.94;110712;1258;22837;-68
2024/03/31 01:59:45;;;;;;;35.40;8.40;;;;;;;15.17;47.82;98955.54;110574;1258;21962;-69
2024/03/31 02:02:13;;;;;;;43.50;8.70;;;;;;;15.15;48.02;98954.27;110678;1258;21955;-68
2024/03/31 02:04:42;;;;;;;42.20;8.70;;;;;;;15.13;48.09;98952.35;110477;1258;23028;-68
2024/03/31 02:07:13;;;;;;;35.40;9.50;;;;;;;15.13;48.06;98949.92;110810;1257;21968;-69
2024/03/31 02:09:42;;;;;;;35.10;7.80;;;;;;;15.11;48.16;98953.20;110512;1258;21964;-69
2024/03/31 02:12:10;;;;;;;40.40;7.40;;;;;;;15.08;47.99;98950.98;110790;1258;21968;-68
2024/03/31 02:14:39;;;;;;;41.20;9.10;;;;;;;15.06;48.13;98950.48;110820;1258;22933;-69
2024/03/31 02:17:08;;;;;;;28.80;8.00;;;;;;;15.04;48.18;98952.64;110707;1258;21958;-68
2024/03/31 02:19:36;;;;;;;34.10;7.60;;;;;;;15.02;48.15;98956.09;110850;1258;21962;-68
2024/03/31 02:22:05;;;;;;;32.10;7.60;;;;;;;14.99;48.26;98956.00;110493;1258;22039;-68
2024/03/31 02:24:34;;;;;;;30.20;6.90;;;;;;;14.98;48.25;98954.05;110731;1258;21961;-69
2024/03/31 02:27:03;;;;;;;31.80;8.50;;;;;;;14.95;48.21;98953.60;110841;1258;21966;-69
2024/03/31 02:29:32;;;;;;;39.40;8.80;;;;;;;14.93;48.38;98951.61;110803;1258;24086;-69
2024/03/31 02:32:01;;;;;;;32.00;7.70;;;;;;;14.89;48.51;98953.20;110728;1258;21960;-69
2024/03/31 02:34:31;;;;;;;33.30;7.40;;;;;;;14.87;48.38;98955.58;110804;1258;23590;-69
2024/03/31 02:37:00;;;;;;;45.10;7.90;;;;;;;14.85;48.44;98957.04;110775;1258;21961;-69
2024/03/31 02:39:29;;;;;;;40.00;9.60;;;;;;;14.82;48.68;98956.48;110735;1258;21949;-69
2024/03/31 02:41:58;;;;;;;35.00;8.50;;;;;;;14.80;48.61;98955.62;110523;1258;22724;-69
2024/03/31 02:44:27;;;;;;;29.30;7.90;;;;;;;14.78;48.67;98951.64;110786;1258;21959;-69
2024/03/31 02:46:55;;;;;;;24.80;6.60;;;;;;;14.75;48.74;98954.25;110445;1258;21962;-69
2024/03/31 02:49:24;;;;;;;31.60;7.50;;;;;;;14.72;48.87;98954.61;110427;1258;21968;-69
2024/03/31 02:51:53;;;;;;;41.40;8.40;;;;;;;14.69;48.94;98954.96;110465;1258;23012;-69
2024/03/31 02:54:22;;;;;;;33.40;8.10;;;;;;;14.66;48.97;98953.54;110832;1258;21964;-70
2024/03/31 02:56:50;;;;;;;34.30;8.40;;;;;;;14.64;48.98;98953.94;110499;1258;21962;-69
2024/03/31 02:59:19;;;;;;;32.90;8.60;;;;;;;14.61;49.27;98951.75;110832;1258;21961;-69
2024/03/31 03:01:48;;;;;;;40.40;7.90;;;;;;;14.60;49.18;98953.27;110508;1258;21967;-69
2024/03/31 03:04:19;;;;;;;30.10;8.50;;;;;;;14.58;49.22;98949.59;110992;1258;21960;-69
2024/03/31 03:06:48;;;;;;;33.50;8.10;;;;;;;14.57;49.32;98947.80;110960;1258;22425;-70
2024/03/31 03:09:19;;;;;;;28.80;7.40;;;;;;;14.56;49.38;98947.33;110979;1258;21965;-69
2024/03/31 03:11:48;;;;;;;34.40;7.50;;;;;;;14.56;49.25;98945.40;110696;1258;22231;-70
2024/03/31 03:14:17;;;;;;;39.40;8.60;;;;;;;14.55;49.39;98939.36;110821;1258;21969;-69
2024/03/31 03:16:46;;;;;;;31.70;7.60;;;;;;;14.53;49.39;98938.30;110396;1254;21968;-69
2024/03/31 03:19:15;;;;;;;42.50;9.10;;;;;;;14.51;49.28;98939.03;110427;1258;21966;-69
2024/03/31 03:21:44;;;;;;;32.10;7.50;;;;;;;14.49;49.24;98933.38;111003;1258;22033;-69
2024/03/31 03:24:12;;;;;;;39.50;9.30;;;;;;;14.47;49.51;98933.70;110472;1258;23801;-69
2024/03/31 03:26:46;;;;;;;30.60;8.00;;;;;;;14.45;49.64;98936.79;110534;1258;21965;-69
2024/03/31 03:29:14;;;;;;;30.70;8.30;;;;;;;14.41;49.72;98938.40;111053;1258;22593;-69
2024/03/31 03:31:43;;;;;;;30.90;7.50;;;;;;;14.39;49.66;98931.00;110693;1258;21968;-69
2024/03/31 03:34:12;;;;;;;26.30;7.90;;;;;;;14.37;49.77;98931.59;110707;1258;21963;-69
2024/03/31 03:36:40;;;;;;;32.80;7.80;;;;;;;14.35;49.80;98932.71;110532;1258;21962;-69
2024/03/31 03:39:09;;;;;;;40.00;8.80;;;;;;;14.33;49.85;98933.70;110787;1258;21958;-68
2024/03/31 03:41:38;;;;;;;31.80;8.50;;;;;;;14.29;50.08;98932.16;110494;1258;23669;-68
2024/03/31 03:44:07;;;;;;;22.60;6.50;;;;;;;14.26;50.07;98928.81;110399;1258;21952;-68
2024/03/31 03:46:35;;;;;;;31.50;8.80;;;;;;;14.24;50.07;98928.52;110605;1258;21959;-69
2024/03/31 03:49:06;;;;;;;34.00;8.50;;;;;;;14.19;50.18;98927.72;110788;1258;23056;-69
2024/03/31 03:51:36;;;;;;;27.60;8.10;;;;;;;14.16;50.44;98925.29;110610;1258;21964;-70
2024/03/31 03:54:05;;;;;;;33.40;8.50;;;;;;;14.12;50.48;98923.39;110932;1258;23649;-70
2024/03/31 03:56:38;;;;;;;29.80;8.80;;;;;;;14.08;50.55;98922.36;110554;1258;21959;-69
2024/03/31 03:59:08;;;;;;;38.80;8.10;;;;;;;14.04;50.72;98921.10;110891;1258;23456;-70
2024/03/31 04:01:37;;;;;;;27.60;9.10;;;;;;;13.99;50.87;98914.89;110870;1258;22425;-70
2024/03/31 04:04:06;;;;;;;36.10;7.20;;;;;;;13.95;50.87;98913.69;110587;1258;21968;-69
2024/03/31 04:06:34;;;;;;;32.00;8.20;;;;;;;13.91;51.06;98919.52;110825;1258;21995;-69
2024/03/31 04:09:03;;;;;;;34.80;9.40;;;;;;;13.88;50.93;98922.21;110504;1258;21971;-69
2024/03/31 04:11:32;;;;;;;34.40;7.50;;;;;;;13.84;51.17;98921.05;110785;1258;22003;-69
2024/03/31 04:14:02;;;;;;;41.50;9.30;;;;;;;13.81;51.58;98921.25;110498;1258;21959;-70
2024/03/31 04:16:31;;;;;;;31.90;8.10;;;;;;;13.79;51.55;98918.61;110714;1258;22661;-69
2024/03/31 04:19:00;;;;;;;27.40;7.30;;;;;;;13.78;51.36;98918.52;110685;1258;21965;-69
2024/03/31 04:21:29;;;;;;;34.20;7.50;;;;;;;13.76;51.70;98920.48;110615;1258;21959;-70
2024/03/31 04:23:58;;;;;;;31.50;8.60;;;;;;;13.76;51.68;98925.30;110776;1258;22828;-70
2024/03/31 04:26:27;;;;;;;36.90;8.70;;;;;;;13.74;51.84;98926.00;110486;1258;23024;-69
2024/03/31 04:28:56;;;;;;;35.60;8.20;;;;;;;13.73;52.02;98924.73;110928;1258;21970;-69
2024/03/31 04:31:25;;;;;;;26.90;8.40;;;;;;;13.70;51.94;98924.33;110736;1258;21931;-69
2024/03/31 04:33:54;;;;;;;28.20;7.80;;;;;;;13.68;52.16;98921.91;110959;1258;22120;-68
2024/03/31 04:36:23;;;;;;;34.30;8.60;;;;;;;13.64;52.18;98925.14;111013;1258;21975;-68
2024/03/31 04:38:52;;;;;;;30.10;8.20;;;;;;;13.60;52.30;98926.13;110861;1258;24375;-69
2024/03/31 04:41:21;;;;;;;47.70;9.80;;;;;;;13.56;52.61;98925.48;110537;1258;21970;-69
2024/03/31 04:43:50;;;;;;;39.10;9.50;;;;;;;13.54;52.45;98928.70;110677;1258;21977;-69
2024/03/31 04:46:19;;;;;;;32.10;8.50;;;;;;;13.51;52.63;98926.83;110475;1258;22045;-70
2024/03/31 04:48:48;;;;;;;42.60;9.70;;;;;;;13.49;52.59;98925.83;110789;1258;21971;-69
2024/03/31 04:51:18;;;;;;;27.00;7.50;;;;;;;13.48;52.70;98926.00;110987;1258;23615;-71
2024/03/31 04:53:47;;;;;;;44.40;8.90;;;;;;;13.45;52.75;98922.02;111072;1258;22024;-67
2024/03/31 04:56:16;;;;;;;29.30;8.30;;;;;;;13.45;52.86;98922.30;110461;1258;23028;-67
2024/03/31 04:58:46;;;;;;;34.00;9.00;;;;;;;13.46;52.95;98923.64;110498;1258;21959;-70
2024/03/31 05:01:15;;;;;;;42.20;9.00;;;;;;;13.48;52.82;98921.35;110565;1258;21945;-67
2024/03/31 05:03:43;;;;;;;29.10;8.40;;;;;;;13.48;52.91;98924.65;111677;1258;21975;-69
2024/03/31 05:06:12;;;;;;;37.30;8.90;;;;;;;13.51;52.99;98927.11;111716;1258;21948;-70
2024/03/31 05:08:41;;;;;;;36.70;8.90;;;;;;;13.55;52.86;98925.91;111113;1258;21969;-71
2024/03/31 05:11:10;;;;;;;38.30;10.00;;;;;;;13.58;52.74;98924.17;110786;1249;21954;-67
2024/03/31 05:13:39;;;;;;;45.90;9.30;;;;;;;13.61;52.64;98926.20;111141;1258;21963;-68
2024/03/31 05:16:14;;;;;;;30.10;8.90;;;;;;;13.62;52.79;98924.80;111808;1258;22773;-68
2024/03/31 05:18:44;;;;;;;31.20;9.60;;;;;;;13.64;52.61;98928.83;111993;1258;21989;-68
2024/03/31 05:21:17;;;;;;;35.60;9.80;;;;;;;13.67;52.57;98928.70;112441;1258;22810;-69
2024/03/31 05:23:46;;;;;;;36.00;9.60;;;;;;;13.71;52.51;98926.52;112422;1258;21970;-68
2024/03/31 05:26:21;;;;;;;41.60;10.90;;;;;;;13.74;52.63;98925.27;112242;1258;21976;-67
2024/03/31 05:28:52;;;;;;;40.10;11.80;;;;;;;13.79;52.70;98924.98;112131;1258;21981;-68
2024/03/31 05:31:29;;;;;;;43.40;10.20;;;;;;;13.84;52.64;98920.38;110529;1258;21970;-67
2024/03/31 05:34:05;;;;;;;41.90;10.50;;;;;;;13.89;52.43;98924.97;110802;1258;21962;-69
2024/03/31 05:36:37;;;;;;;;;;;;;;;13.93;52.36;98922.95;110500;1258;22683;-69
2024/03/31 05:39:06;;;;;;;35.70;9.60;;;;;;;13.87;52.44;98920.95;110467;1258;22831;-68
2024/03/31 05:41:35;;;;;;;41.00;11.40;;;;;;;13.89;52.39;98919.96;110779;1258;21969;-67
2024/03/31 05:44:04;;;;;;;46.50;17.90;;;;;;;13.91;52.29;98916.04;110766;1258;21961;-68
2024/03/31 05:46:34;;;;;;;44.90;14.90;;;;;;;13.92;52.33;98917.01;110506;1258;22025;-68
2024/03/31 05:49:02;;;;;;;64.40;32.50;;;;;;;13.94;52.31;98918.41;110830;1258;22612;-68
2024/03/31 05:51:33;;;;;;;42.60;12.00;;;;;;;13.95;52.41;98918.14;110742;1258;21964;-68
2024/03/31 05:54:02;;;;;;;43.30;12.90;;;;;;;13.98;52.29;98915.16;110856;1258;21966;-68
2024/03/31 05:56:31;;;;;;;38.80;13.10;;;;;;;14.02;52.34;98911.42;110703;1258;21967;-68
2024/03/31 05:59:02;;;;;;;38.90;10.10;;;;;;;14.06;52.23;98911.11;110751;1258;21997;-68
2024/03/31 06:01:33;;;;;;;47.90;13.60;;;;;;;14.10;52.19;98909.43;110796;1258;21965;-69
2024/03/31 06:04:01;;;;;;;42.80;11.50;;;;;;;14.14;52.35;98908.13;110781;1258;21945;-67
2024/03/31 06:06:33;;;;;;;54.60;20.80;;;;;;;14.20;52.34;98906.70;110832;1258;21967;-73
2024/03/31 06:09:02;;;;;;;49.80;12.10;;;;;;;14.27;52.29;98909.56;110824;1258;21962;-68
2024/03/31 06:11:32;;;;;;;43.10;10.90;;;;;;;14.35;52.06;98912.95;111154;1258;21961;-68
2024/03/31 06:14:00;;;;;;;46.00;12.30;;;;;;;14.43;51.91;98908.06;110673;1258;22747;-67
2024/03/31 06:16:29;;;;;;;38.40;10.90;;;;;;;14.52;51.55;98910.40;110968;1258;22620;-68
2024/03/31 06:18:58;;;;;;;38.80;11.30;;;;;;;14.61;51.35;98911.73;110744;1258;21973;-69
2024/03/31 06:21:27;;;;;;;38.40;8.20;;;;;;;14.68;51.14;98910.09;110534;1258;21950;-68
2024/03/31 06:23:56;;;;;;;44.50;10.10;;;;;;;14.74;51.07;98910.77;110480;1258;21958;-67
2024/03/31 06:26:25;;;;;;;42.00;9.50;;;;;;;14.80;50.83;98908.90;110679;1258;21959;-68
2024/03/31 06:28:53;;;;;;;46.10;11.30;;;;;;;14.83;50.70;98905.17;110719;1258;21961;-69
2024/03/31 06:31:22;;;;;;;44.90;9.70;;;;;;;14.87;50.73;98905.59;110681;1258;22183;-70
2024/03/31 06:33:55;;;;;;;38.80;10.00;;;;;;;14.94;50.69;98905.14;110469;1258;22423;-69
2024/03/31 06:36:24;;;;;;;36.40;9.60;;;;;;;15.01;50.40;98907.05;110732;1258;21957;-68
2024/03/31 06:38:53;;;;;;;44.60;10.20;;;;;;;15.07;50.45;98908.04;110811;1258;23611;-68
2024/03/31 06:41:23;;;;;;;43.60;9.90;;;;;;;15.12;50.29;98903.92;111006;1248;21975;-70
2024/03/31 06:43:51;;;;;;;43.40;10.90;;;;;;;15.15;50.20;98904.61;110987;1258;21975;-69
2024/03/31 06:46:20;;;;;;;32.70;10.30;;;;;;;15.20;50.11;98902.70;110764;1258;21958;-69
2024/03/31 06:48:49;;;;;;;38.00;10.80;;;;;;;15.24;50.03;98896.03;110695;1258;21959;-69
2024/03/31 06:51:17;;;;;;;37.10;10.20;;;;;;;15.30;50.03;98896.04;110694;1258;22228;-68
2024/03/31 06:53:51;;;;;;;38.50;11.70;;;;;;;15.34;49.92;98895.02;111042;1258;22426;-69
2024/03/31 06:56:20;;;;;;;40.20;10.50;;;;;;;15.40;49.75;98893.13;110726;1258;23024;-69
2024/03/31 06:58:49;;;;;;;39.90;10.50;;;;;;;15.45;49.76;98890.98;110741;1258;22433;-68
2024/03/31 07:01:18;;;;;;;45.50;11.30;;;;;;;15.49;49.58;98892.48;110707;1258;21983;-70
2024/03/31 07:03:46;;;;;;;38.70;10.40;;;;;;;15.55;49.10;98894.11;110949;1258;23585;-68
2024/03/31 07:06:15;;;;;;;41.40;10.00;;;;;;;15.62;49.10;98895.62;110688;1258;23732;-71
2024/03/31 07:08:46;;;;;;;45.90;11.60;;;;;;;15.72;48.85;98893.27;111073;1258;23045;-70
2024/03/31 07:14:03;;;;;;;37.70;9.20;;;;;;;16.01;48.62;98891.36;111988;1258;23740;-71
2024/03/31 07:16:32;;;;;;;39.70;9.90;;;;;;;16.26;48.15;98895.72;111529;1258;21969;-71
2024/03/31 07:19:01;;;;;;;46.80;10.00;;;;;;;16.57;47.76;98897.50;110999;1258;24424;-71
2024/03/31 07:21:31;;;;;;;34.50;9.30;;;;;;;16.94;46.92;98890.67;111012;1258;22015;-71
2024/03/31 07:24:00;;;;;;;36.40;8.90;;;;;;;17.33;46.48;98886.97;111001;1258;23682;-71
2024/03/31 07:26:29;;;;;;;43.10;12.10;;;;;;;17.75;45.18;98882.59;110730;1258;22177;-70
2024/03/31 07:28:57;;;;;;;42.70;13.10;;;;;;;18.14;44.29;98882.36;110713;1254;22011;-71
2024/03/31 07:31:26;;;;;;;48.60;11.70;;;;;;;18.44;43.47;98883.27;110693;1258;22844;-69
2024/03/31 07:33:55;;;;;;;36.90;11.00;;;;;;;18.71;42.99;98885.71;110772;1258;21959;-70
2024/03/31 07:36:24;;;;;;;37.30;9.20;;;;;;;18.97;42.46;98893.05;111092;1258;23019;-68
2024/03/31 07:38:53;;;;;;;40.90;10.10;;;;;;;19.18;42.18;98894.64;110809;1258;22815;-72
2024/03/31 07:41:22;;;;;;;43.00;10.70;;;;;;;19.31;41.19;98890.21;110760;1258;23631;-68
2024/03/31 07:43:50;;;;;;;34.00;11.10;;;;;;;19.40;41.01;98882.80;111040;1258;22075;-70
2024/03/31 07:46:19;;;;;;;38.20;9.30;;;;;;;19.60;40.52;98880.98;110995;1258;23486;-70
2024/03/31 07:48:47;;;;;;;33.70;9.60;;;;;;;19.86;40.22;98880.33;110987;1258;23051;-69
2024/03/31 07:51:16;;;;;;;38.70;13.80;;;;;;;20.14;39.01;98880.77;110934;1258;21960;-70
2024/03/31 07:53:45;;;;;;;34.60;10.00;;;;;;;20.34;38.71;98885.86;111007;1258;23094;-67
2024/03/31 07:56:14;;;;;;;34.80;10.90;;;;;;;20.58;37.95;98887.23;110728;1258;21968;-67
2024/03/31 07:58:43;;;;;;;38.10;12.40;;;;;;;20.80;37.83;98884.04;110739;1258;21980;-69
2024/03/31 08:01:11;;;;;;;39.40;10.50;;;;;;;21.04;37.90;98878.27;110670;1252;22001;-70
2024/03/31 08:03:40;;;;;;;43.40;10.80;;;;;;;21.28;36.98;98877.94;110959;1258;22247;-71
2024/03/31 08:06:08;;;;;;;32.80;9.40;;;;;;;21.48;36.95;98871.33;110998;1258;23684;-71
2024/03/31 08:08:37;;;;;;;36.40;9.30;;;;;;;21.69;36.04;98870.14;110945;1258;21964;-71
2024/03/31 08:11:05;;;;;;;42.60;12.30;;;;;;;21.86;35.83;98870.59;110541;1258;186204;-71
2024/03/31 08:13:35;;;;;;;39.20;10.20;;;;;;;21.99;35.74;98874.20;110997;1258;21962;-70
2024/03/31 08:16:04;;;;;;;36.10;12.50;;;;;;;21.98;35.32;98876.96;110997;1258;21980;-70
2024/03/31 08:18:33;;;;;;;31.80;7.70;;;;;;;21.85;34.66;98871.77;110994;1258;24106;-70
2024/03/31 08:21:01;;;;;;;48.80;8.90;;;;;;;21.74;34.83;98865.61;110973;1258;23637;-70
2024/03/31 08:23:30;;;;;;;32.40;8.20;;;;;;;21.84;34.99;98868.10;111010;1258;23955;-71
2024/03/31 08:25:59;;;;;;;33.00;8.90;;;;;;;22.04;34.71;98862.09;110995;1258;24102;-71
2024/03/31 08:28:27;;;;;;;39.70;8.90;;;;;;;22.25;34.27;98864.57;110654;1258;23618;-70
2024/03/31 08:30:56;;;;;;;43.90;10.60;;;;;;;22.51;33.67;98864.28;110950;1258;21964;-70
2024/03/31 08:33:25;;;;;;;36.90;9.40;;;;;;;22.75;33.45;98860.08;110991;1248;24106;-70
2024/03/31 08:35:54;;;;;;;42.00;7.90;;;;;;;22.96;32.42;98858.15;111039;1258;23003;-71
2024/03/31 08:38:22;;;;;;;34.50;9.60;;;;;;;23.07;32.24;98851.96;110678;1254;21968;-71
2024/03/31 08:41:08;;;;;;;45.80;9.50;;;;;;;23.28;31.55;98851.61;111059;1258;23617;-70
2024/03/31 08:43:39;;;;;;;29.80;8.30;;;;;;;23.30;30.61;98848.83;111002;1255;22011;-70
2024/03/31 08:46:08;;;;;;;;;;;;;;;23.29;30.98;98845.49;110994;1258;22029;-71
2024/03/31 08:48:38;;;;;;;34.40;8.80;;;;;;;23.26;30.61;98838.56;110743;1258;21972;-71
2024/03/31 08:51:07;;;;;;;36.00;10.90;;;;;;;23.40;30.12;98830.55;111045;1258;21961;-70
2024/03/31 08:53:39;;;;;;;39.80;8.60;;;;;;;23.67;29.85;98824.39;110998;1258;23627;-70
2024/03/31 08:56:08;;;;;;;33.00;7.50;;;;;;;23.90;29.14;98821.11;110759;1258;21959;-70
2024/03/31 08:58:39;;;;;;;44.40;7.70;;;;;;;23.86;28.85;98816.70;111017;1258;22007;-70
2024/03/31 09:01:11;;;;;;;36.60;9.50;;;;;;;23.78;28.77;98812.71;111070;1257;24424;-71
2024/03/31 09:03:40;;;;;;;36.90;7.00;;;;;;;23.77;28.74;98809.90;111038;1258;23053;-70
2024/03/31 09:06:09;;;;;;;37.80;10.00;;;;;;;23.75;28.49;98805.21;111039;1258;21955;-71
2024/03/31 09:08:37;;;;;;;33.30;9.60;;;;;;;23.89;28.48;98806.98;111021;1258;23760;-71
2024/03/31 09:11:09;;;;;;;41.50;8.90;;;;;;;24.05;27.92;98810.77;110991;1258;21972;-70
2024/03/31 09:13:38;;;;;;;35.70;8.80;;;;;;;23.90;27.90;98808.34;110649;1250;24281;-71
2024/03/31 09:16:07;;;;;;;38.70;8.90;;;;;;;23.71;28.38;98807.67;110987;1258;23015;-71
2024/03/31 09:18:36;;;;;;;26.90;8.00;;;;;;;23.50;28.52;98809.27;111032;1258;24203;-71
2024/03/31 09:21:04;;;;;;;32.40;7.80;;;;;;;23.32;28.51;98804.95;110994;1258;21962;-71
2024/03/31 09:23:36;;;;;;;34.10;8.10;;;;;;;23.08;28.38;98811.08;111016;1258;21973;-71
2024/03/31 09:26:05;;;;;;;39.70;6.90;;;;;;;22.89;28.88;98816.13;110728;1258;23079;-72
2024/03/31 09:28:36;;;;;;;29.80;7.30;;;;;;;22.69;29.19;98814.95;110959;1258;21963;-71
2024/03/31 09:31:04;;;;;;;30.80;7.60;;;;;;;22.59;29.70;98816.27;110732;1258;23039;-71
2024/03/31 09:33:37;;;;;;;39.20;9.40;;;;;;;22.65;29.58;98818.27;110744;1259;160853;-71
2024/03/31 09:36:43;;;;;;;34.60;7.50;;;;;;;22.85;29.15;98822.41;107982;1284;543967;-70
2024/03/31 09:39:12;;;;;;;37.80;7.70;;;;;;;22.91;29.37;98819.92;110211;1267;21963;-71
2024/03/31 09:41:40;;;;;;;41.00;7.70;;;;;;;22.99;29.21;98819.25;111165;1255;21999;-70
2024/03/31 09:44:09;;;;;;;46.10;7.80;;;;;;;22.94;29.31;98813.14;111080;1255;22947;-67
2024/03/31 09:46:37;;;;;;;41.50;8.00;;;;;;;22.85;29.24;98814.54;110848;1255;23128;-70
2024/03/31 09:49:12;;;;;;;35.00;8.60;;;;;;;22.74;29.44;98818.60;111144;1256;21956;-70
2024/03/31 09:51:48;;;;;;;41.50;9.40;;;;;;;22.70;29.48;98830.92;111736;1253;21962;-70
2024/03/31 09:54:42;;;;;;;34.60;8.30;;;;;;;22.73;29.81;98835.48;112534;1253;22102;-72
2024/03/31 09:57:13;;;;;;;37.90;8.50;;;;;;;22.93;29.33;98832.39;111271;1253;22133;-70
2024/03/31 09:59:58;;;;;;;27.90;8.40;;;;;;;23.12;29.00;98830.67;111440;1253;23035;-70
2024/03/31 10:02:28;;;;;;;50.70;11.10;;;;;;;23.22;28.58;98837.05;111367;1253;23007;-71
2024/03/31 10:05:13;;;;;;;44.50;7.80;;;;;;;23.14;28.42;98838.16;111366;1253;21952;-70
2024/03/31 10:07:43;;;;;;;42.30;9.60;;;;;;;22.99;28.61;98836.94;111269;1247;21973;-71
2024/03/31 10:10:13;;;;;;;36.00;9.50;;;;;;;22.99;28.58;98836.78;111241;1252;22722;-71
2024/03/31 10:12:45;;;;;;;32.90;9.30;;;;;;;23.15;28.18;98840.94;111275;1253;23625;-70
2024/03/31 10:15:15;;;;;;;43.80;10.00;;;;;;;23.40;27.98;98838.84;111281;1253;24390;-71
2024/03/31 10:17:45;;;;;;;40.10;9.60;;;;;;;23.76;27.35;98840.69;111127;1253;21960;-71
2024/03/31 10:20:14;;;;;;;45.20;8.80;;;;;;;24.04;26.52;98834.88;111071;1253;21969;-70
2024/03/31 10:22:43;;;;;;;37.20;8.20;;;;;;;24.10;26.03;98840.81;111228;1253;21967;-71
2024/03/31 10:25:13;;;;;;;35.30;8.80;;;;;;;24.16;26.10;98840.91;111254;1253;24380;-70
2024/03/31 10:27:43;;;;;;;36.50;8.30;;;;;;;24.21;25.96;98836.48;111226;1253;23700;-70
2024/03/31 10:30:11;;;;;;;38.10;8.30;;;;;;;24.23;25.73;98837.52;111304;1253;21984;-70
2024/03/31 10:32:41;;;;;;;52.30;8.10;;;;;;;24.21;25.87;98836.02;110942;1253;21945;-70
2024/03/31 10:35:10;;;;;;;40.40;9.20;;;;;;;24.19;25.90;98833.23;111201;1253;23028;-70
2024/03/31 10:37:39;;;;;;;39.20;8.20;;;;;;;24.08;26.11;98831.58;111228;1253;22740;-71
2024/03/31 10:40:12;;;;;;;38.40;7.50;;;;;;;23.96;26.14;98828.98;111224;1251;23399;-73
2024/03/31 10:42:42;;;;;;;36.40;8.90;;;;;;;23.92;26.23;98829.95;111252;1253;21958;-71
2024/03/31 10:45:12;;;;;;;41.10;9.00;;;;;;;23.99;26.16;98819.94;111269;1253;21996;-71
2024/03/31 10:47:41;;;;;;;36.50;8.20;;;;;;;24.02;26.14;98815.91;111251;1254;24307;-70
2024/03/31 10:50:11;;;;;;;43.70;7.70;;;;;;;24.15;26.45;98813.96;110550;1261;23582;-71
2024/03/31 10:52:39;;;;;;;46.10;8.60;;;;;;;24.44;26.07;98810.88;110611;1259;21977;-70
2024/03/31 10:55:09;;;;;;;46.20;9.50;;;;;;;24.62;25.66;98806.98;110612;1261;23025;-71
2024/03/31 10:57:40;;;;;;;30.20;8.50;;;;;;;24.69;25.45;98807.41;110597;1261;23022;-70
2024/03/31 11:00:17;;;;;;;42.00;8.60;;;;;;;24.57;25.31;98806.23;110642;1261;23072;-70
2024/03/31 11:02:51;;;;;;;42.30;9.60;;;;;;;24.41;25.78;98803.81;110436;1261;22119;-69
2024/03/31 11:05:21;;;;;;;35.80;9.20;;;;;;;24.43;25.66;98801.80;110636;1261;21997;-70
2024/03/31 11:07:54;;;;;;;41.30;8.50;;;;;;;24.41;25.64;98791.39;110702;1248;22750;-70
2024/03/31 11:10:24;;;;;;;44.90;8.80;;;;;;;24.50;25.83;98789.45;111212;1254;21964;-72
2024/03/31 11:12:54;;;;;;;49.00;9.20;;;;;;;24.49;25.57;98792.39;111165;1254;21956;-71
2024/03/31 11:15:23;;;;;;;44.40;8.70;;;;;;;24.35;25.32;98793.66;111204;1250;23087;-69
2024/03/31 11:17:53;;;;;;;42.20;10.00;;;;;;;24.24;25.44;98787.41;111279;1254;23573;-70
2024/03/31 11:20:23;;;;;;;51.10;9.80;;;;;;;24.16;25.83;98785.07;111242;1254;22004;-70
2024/03/31 11:22:53;;;;;;;56.50;9.50;;;;;;;24.04;25.99;98784.50;111269;1254;21965;-69
2024/03/31 11:25:22;;;;;;;51.00;10.50;;;;;;;23.96;26.26;98787.52;111137;1254;22132;-69
2024/03/31 11:27:51;;;;;;;45.90;11.00;;;;;;;24.03;26.40;98787.19;110832;1254;23649;-68